createdAt,value
2023-10-28T00:00:18.486Z,17.55
2023-10-28T00:01:20.189Z,14.52
2023-10-28T00:02:21.806Z,13.50
2023-10-28T00:03:23.494Z,13.55
2023-10-28T00:04:25.115Z,14.48
2023-10-28T00:05:26.694Z,14.93
2023-10-28T00:06:29.673Z,15.30
2023-10-28T00:07:32.634Z,13.98
2023-10-28T00:08:34.434Z,15.93
2023-10-28T00:09:36.219Z,17.60
2023-10-28T00:10:37.996Z,16.98
2023-10-28T00:11:39.637Z,16.10
2023-10-28T00:12:41.526Z,18.00
2023-10-28T00:13:43.263Z,20.45
2023-10-28T00:14:44.859Z,20.67
2023-10-28T00:15:46.442Z,17.83
2023-10-28T00:16:48.058Z,19.58
2023-10-28T00:17:49.669Z,19.65
2023-10-28T00:18:52.520Z,21.33
2023-10-28T00:19:54.156Z,18.67
2023-10-28T00:20:55.732Z,18.80
2023-10-28T00:21:57.282Z,17.13
2023-10-28T00:23:00.586Z,20.88
2023-10-28T00:24:02.412Z,23.23
2023-10-28T00:25:04.656Z,20.55
2023-10-28T00:26:07.196Z,18.23
2023-10-28T00:27:08.811Z,20.20
2023-10-28T00:28:10.485Z,19.85
2023-10-28T00:29:12.099Z,20.40
2023-10-28T00:30:14.668Z,19.17
2023-10-28T00:31:18.658Z,19.58
2023-10-28T00:32:20.431Z,19.60
2023-10-28T00:33:22.018Z,20.52
2023-10-28T00:34:24.923Z,20.45
2023-10-28T00:35:28.179Z,22.13
2023-10-28T00:36:29.785Z,20.63
2023-10-28T00:37:31.409Z,21.50
2023-10-28T00:38:34.393Z,21.30
2023-10-28T00:39:36.074Z,18.98
2023-10-28T00:40:38.045Z,19.30
2023-10-28T00:41:39.798Z,20.80
2023-10-28T00:42:41.404Z,19.15
2023-10-28T00:43:43.022Z,20.30
2023-10-28T00:44:45.295Z,20.83
2023-10-28T00:45:46.962Z,21.38
2023-10-28T00:46:48.661Z,21.77
2023-10-28T00:47:50.409Z,22.58
2023-10-28T00:48:52.244Z,22.83
2023-10-28T00:49:54.226Z,20.70
2023-10-28T00:50:56.136Z,18.35
2023-10-28T00:51:58.472Z,19.73
2023-10-28T00:53:01.400Z,19.73
2023-10-28T00:54:04.628Z,23.05
2023-10-28T00:55:07.234Z,19.35
2023-10-28T00:56:10.187Z,23.27
2023-10-28T00:57:12.043Z,19.58
2023-10-28T00:58:13.663Z,19.02
2023-10-28T00:59:15.795Z,21.05
2023-10-28T01:00:17.783Z,22.83
2023-10-28T01:01:20.181Z,21.00
2023-10-28T01:02:21.898Z,16.42
2023-10-28T01:03:23.739Z,21.50
2023-10-28T01:04:25.365Z,17.92
2023-10-28T01:05:27.216Z,15.95
2023-10-28T01:06:29.524Z,19.33
2023-10-28T01:07:32.422Z,17.98
2023-10-28T01:08:34.040Z,20.90
2023-10-28T01:09:46.411Z,24.38
2023-10-28T01:10:48.094Z,19.77
2023-10-28T01:11:49.791Z,22.65
2023-10-28T01:12:51.416Z,19.92
2023-10-28T01:13:53.060Z,22.33
2023-10-28T01:14:54.770Z,15.63
2023-10-28T01:15:57.756Z,15.23
2023-10-28T01:16:59.400Z,17.17
2023-10-28T01:18:01.155Z,17.55
2023-10-28T01:19:02.815Z,16.67
2023-10-28T01:20:05.561Z,19.05
2023-10-28T01:21:12.174Z,15.82
2023-10-28T01:22:13.913Z,17.50
2023-10-28T01:23:15.521Z,19.15
2023-10-28T01:24:17.152Z,18.05
2023-10-28T01:25:18.962Z,17.42
2023-10-28T01:26:20.881Z,18.27
2023-10-28T01:27:22.480Z,18.60
2023-10-28T01:28:24.093Z,14.73
2023-10-28T01:29:25.735Z,16.45
2023-10-28T01:30:27.355Z,18.45
2023-10-28T01:31:29.004Z,16.95
2023-10-28T01:32:30.661Z,16.33
2023-10-28T01:33:32.225Z,14.90
2023-10-28T01:34:33.947Z,16.48
2023-10-28T01:35:35.574Z,16.02
2023-10-28T01:36:39.790Z,17.40
2023-10-28T01:37:41.639Z,15.18
2023-10-28T01:38:43.329Z,13.73
2023-10-28T01:39:45.392Z,15.93
2023-10-28T01:40:47.073Z,15.90
2023-10-28T01:41:48.665Z,15.98
2023-10-28T01:42:50.546Z,16.65
2023-10-28T01:43:52.226Z,17.13
2023-10-28T01:44:53.858Z,16.38
2023-10-28T01:45:55.477Z,18.63
2023-10-28T01:46:57.134Z,16.27
2023-10-28T01:47:58.857Z,18.48
2023-10-28T01:49:00.479Z,14.57
2023-10-28T01:50:02.112Z,15.70
2023-10-28T01:51:03.782Z,16.13
2023-10-28T01:52:07.193Z,15.30
2023-10-28T01:53:08.822Z,16.30
2023-10-28T01:54:10.430Z,15.90
2023-10-28T01:55:12.513Z,16.73
2023-10-28T01:56:16.568Z,17.20
2023-10-28T01:57:18.721Z,17.10
2023-10-28T01:58:20.402Z,18.38
2023-10-28T01:59:22.111Z,17.05
2023-10-28T02:00:23.808Z,18.70
2023-10-28T02:01:25.618Z,16.48
2023-10-28T02:02:27.312Z,16.33
2023-10-28T02:03:29.891Z,14.48
2023-10-28T02:04:32.240Z,18.40
2023-10-28T02:05:33.960Z,17.55
2023-10-28T02:06:35.548Z,15.45
2023-10-28T02:07:38.718Z,17.42
2023-10-28T02:08:40.539Z,17.77
2023-10-28T02:09:42.503Z,16.15
2023-10-28T02:10:44.166Z,17.42
2023-10-28T02:11:45.771Z,16.35
2023-10-28T02:12:48.751Z,16.48
2023-10-28T02:13:51.679Z,15.55
2023-10-28T02:14:53.340Z,16.75
2023-10-28T02:15:55.086Z,16.88
2023-10-28T02:16:56.794Z,14.68
2023-10-28T02:17:58.479Z,17.08
2023-10-28T02:19:00.714Z,15.80
2023-10-28T02:20:02.317Z,15.60
2023-10-28T02:21:04.010Z,14.95
2023-10-28T02:22:13.493Z,14.02
2023-10-28T02:23:18.505Z,15.40
2023-10-28T02:24:20.105Z,17.10
2023-10-28T02:25:21.707Z,15.82
2023-10-28T02:26:23.370Z,15.20
2023-10-28T02:27:24.945Z,15.40
2023-10-28T02:28:26.505Z,14.00
2023-10-28T02:29:28.138Z,14.02
2023-10-28T02:30:29.708Z,14.45
2023-10-28T02:31:31.363Z,15.35
2023-10-28T02:32:33.443Z,11.65
2023-10-28T02:33:35.130Z,9.35
2023-10-28T02:34:37.067Z,9.60
2023-10-28T02:35:38.748Z,10.25
2023-10-28T02:36:40.366Z,12.90
2023-10-28T02:37:41.961Z,10.10
2023-10-28T02:38:44.844Z,9.20
2023-10-28T02:39:46.677Z,7.68
2023-10-28T02:40:48.806Z,7.50
2023-10-28T02:41:50.413Z,7.75
2023-10-28T02:42:52.005Z,7.63
2023-10-28T02:43:53.672Z,7.03
2023-10-28T02:44:55.441Z,8.55
2023-10-28T02:45:57.094Z,9.18
2023-10-28T02:46:58.876Z,7.45
2023-10-28T02:48:00.537Z,8.70
2023-10-28T02:49:02.208Z,7.72
2023-10-28T02:50:04.253Z,6.45
2023-10-28T02:51:07.090Z,6.60
2023-10-28T02:52:09.912Z,6.60
2023-10-28T02:53:11.607Z,7.53
2023-10-28T02:54:14.581Z,6.18
2023-10-28T02:55:16.497Z,6.30
2023-10-28T02:56:18.223Z,6.57
2023-10-28T02:57:19.936Z,6.35
2023-10-28T02:58:21.489Z,6.75
2023-10-28T02:59:23.083Z,6.03
2023-10-28T03:00:24.635Z,5.40
2023-10-28T03:01:26.226Z,5.55
2023-10-28T03:02:27.951Z,6.65
2023-10-28T03:03:30.210Z,6.68
2023-10-28T03:04:31.901Z,6.47
2023-10-28T03:05:33.500Z,6.43
2023-10-28T03:06:35.247Z,6.50
2023-10-28T03:07:36.926Z,6.38
2023-10-28T03:08:38.632Z,6.28
2023-10-28T03:09:43.914Z,6.45
2023-10-28T03:10:45.551Z,6.88
2023-10-28T03:11:47.181Z,5.93
2023-10-28T03:12:48.837Z,6.40
2023-10-28T03:13:50.509Z,6.03
2023-10-28T03:14:53.267Z,6.32
2023-10-28T03:15:55.073Z,5.32
2023-10-28T03:16:56.803Z,6.10
2023-10-28T03:17:58.419Z,6.05
2023-10-28T03:19:00.022Z,6.32
2023-10-28T03:20:01.848Z,6.47
2023-10-28T03:21:03.754Z,6.18
2023-10-28T03:22:05.333Z,5.78
2023-10-28T03:23:06.988Z,4.93
2023-10-28T03:24:09.227Z,6.00
2023-10-28T03:25:12.157Z,5.85
2023-10-28T03:26:13.971Z,4.80
2023-10-28T03:27:15.613Z,5.28
2023-10-28T03:28:17.193Z,5.43
2023-10-28T03:29:18.813Z,5.18
2023-10-28T03:30:20.717Z,4.88
2023-10-28T03:31:25.226Z,4.30
2023-10-28T03:32:27.156Z,5.57
2023-10-28T03:33:28.872Z,6.00
2023-10-28T03:34:30.473Z,5.03
2023-10-28T03:35:32.295Z,5.43
2023-10-28T03:36:34.076Z,4.68
2023-10-28T03:37:35.831Z,4.15
2023-10-28T03:38:37.576Z,4.80
2023-10-28T03:39:39.169Z,4.10
2023-10-28T03:40:42.162Z,4.93
2023-10-28T03:41:43.914Z,4.78
2023-10-28T03:42:45.496Z,3.80
2023-10-28T03:43:47.146Z,4.43
2023-10-28T03:44:48.926Z,4.18
2023-10-28T03:45:50.738Z,4.63
2023-10-28T03:46:52.460Z,4.47
2023-10-28T03:47:54.090Z,5.18
2023-10-28T03:48:55.730Z,4.50
2023-10-28T03:49:57.353Z,5.00
2023-10-28T03:50:59.537Z,4.57
2023-10-28T03:52:01.262Z,4.00
2023-10-28T03:53:02.900Z,4.70
2023-10-28T03:54:05.247Z,4.20
2023-10-28T03:55:08.186Z,4.57
2023-10-28T03:56:11.143Z,3.78
2023-10-28T03:57:13.251Z,4.50
2023-10-28T03:58:14.940Z,4.35
2023-10-28T03:59:16.718Z,3.63
2023-10-28T04:00:18.616Z,3.65
2023-10-28T04:01:20.209Z,4.78
2023-10-28T04:02:21.842Z,3.47
2023-10-28T04:03:24.659Z,3.75
2023-10-28T04:04:26.249Z,4.15
2023-10-28T04:05:27.851Z,3.35
2023-10-28T04:06:29.514Z,3.80
2023-10-28T04:07:31.136Z,3.35
2023-10-28T04:08:32.755Z,5.13
2023-10-28T04:09:34.353Z,4.35
2023-10-28T04:10:36.026Z,3.40
2023-10-28T04:11:38.934Z,4.45
2023-10-28T04:12:40.720Z,4.25
2023-10-28T04:13:42.356Z,3.30
2023-10-28T04:14:44.053Z,3.50
2023-10-28T04:15:45.674Z,4.22
2023-10-28T04:16:47.308Z,3.40
2023-10-28T04:17:48.949Z,4.15
2023-10-28T04:18:50.703Z,3.67
2023-10-28T04:19:52.517Z,3.72
2023-10-28T04:20:54.178Z,3.38
2023-10-28T04:21:55.859Z,3.47
2023-10-28T04:22:57.433Z,3.75
2023-10-28T04:23:59.058Z,4.40
2023-10-28T04:25:00.705Z,3.65
2023-10-28T04:26:02.484Z,3.33
2023-10-28T04:27:05.595Z,3.88
2023-10-28T04:28:07.343Z,3.63
2023-10-28T04:29:09.050Z,3.67
2023-10-28T04:30:11.380Z,4.22
2023-10-28T04:31:12.990Z,3.60
2023-10-28T04:32:14.736Z,3.88
2023-10-28T04:33:16.478Z,3.90
2023-10-28T04:34:29.118Z,3.55
2023-10-28T04:35:34.543Z,3.00
2023-10-28T04:36:36.228Z,3.70
2023-10-28T04:37:37.866Z,4.28
2023-10-28T04:38:39.455Z,3.67
2023-10-28T04:39:41.092Z,3.90
2023-10-28T04:40:42.674Z,3.92
2023-10-28T04:41:44.300Z,3.72
2023-10-28T04:42:47.213Z,3.30
2023-10-28T04:43:48.954Z,3.60
2023-10-28T04:44:50.932Z,4.70
2023-10-28T04:45:53.560Z,4.75
2023-10-28T04:46:55.260Z,3.88
2023-10-28T04:47:56.914Z,4.30
2023-10-28T04:48:58.529Z,3.50
2023-10-28T04:50:00.156Z,3.50
2023-10-28T04:51:01.785Z,4.00
2023-10-28T04:52:04.016Z,3.80
2023-10-28T04:53:06.023Z,3.47
2023-10-28T04:54:07.792Z,3.40
2023-10-28T04:55:09.335Z,4.55
2023-10-28T04:56:10.978Z,3.63
2023-10-28T04:57:12.641Z,3.92
2023-10-28T04:58:15.566Z,3.97
2023-10-28T04:59:17.243Z,3.55
2023-10-28T05:00:19.035Z,4.00
2023-10-28T05:01:20.666Z,3.90
2023-10-28T05:02:22.290Z,3.38
2023-10-28T05:03:24.132Z,4.00
2023-10-28T05:04:25.922Z,4.95
2023-10-28T05:05:27.564Z,3.97
2023-10-28T05:06:29.122Z,4.32
2023-10-28T05:07:30.858Z,4.03
2023-10-28T05:08:32.512Z,3.70
2023-10-28T05:09:36.051Z,3.80
2023-10-28T05:10:37.631Z,4.38
2023-10-28T05:11:39.206Z,4.43
2023-10-28T05:12:41.609Z,4.40
2023-10-28T05:13:44.556Z,4.10
2023-10-28T05:14:46.170Z,4.47
2023-10-28T05:15:47.865Z,4.03
2023-10-28T05:16:49.883Z,4.13
2023-10-28T05:17:51.534Z,4.00
2023-10-28T05:18:53.170Z,4.35
2023-10-28T05:19:54.776Z,4.35
2023-10-28T05:20:56.431Z,4.43
2023-10-28T05:21:58.008Z,4.32
2023-10-28T05:22:59.662Z,4.50
2023-10-28T05:24:01.359Z,4.05
2023-10-28T05:25:03.703Z,3.83
2023-10-28T05:26:05.449Z,4.35
2023-10-28T05:27:07.025Z,4.70
2023-10-28T05:28:08.626Z,4.60
2023-10-28T05:29:11.588Z,4.85
2023-10-28T05:30:14.221Z,5.07
2023-10-28T05:31:15.896Z,4.47
2023-10-28T05:32:17.612Z,4.07
2023-10-28T05:33:19.427Z,4.53
2023-10-28T05:34:21.004Z,4.78
2023-10-28T05:35:22.834Z,5.18
2023-10-28T05:36:24.600Z,4.63
2023-10-28T05:37:26.198Z,4.50
2023-10-28T05:38:27.754Z,4.20
2023-10-28T05:39:29.625Z,4.38
2023-10-28T05:40:31.344Z,4.50
2023-10-28T05:41:32.943Z,4.82
2023-10-28T05:42:34.521Z,4.70
2023-10-28T05:43:36.185Z,5.22
2023-10-28T05:44:39.256Z,4.72
2023-10-28T05:45:40.905Z,4.38
2023-10-28T05:46:42.629Z,4.38
2023-10-28T05:47:44.199Z,4.55
2023-10-28T05:48:45.859Z,4.95
2023-10-28T05:49:47.752Z,4.43
2023-10-28T05:50:49.512Z,5.30
2023-10-28T05:51:51.225Z,4.57
2023-10-28T05:52:52.901Z,4.60
2023-10-28T05:53:54.592Z,4.57
2023-10-28T05:54:56.155Z,4.30
2023-10-28T05:55:57.780Z,4.55
2023-10-28T05:56:59.424Z,4.15
2023-10-28T05:58:01.085Z,4.43
2023-10-28T05:59:02.694Z,4.72
2023-10-28T06:00:07.202Z,4.65
2023-10-28T06:01:09.333Z,4.32
2023-10-28T06:02:11.041Z,4.03
2023-10-28T06:03:12.763Z,4.10
2023-10-28T06:04:14.569Z,5.07
2023-10-28T06:05:16.473Z,4.93
2023-10-28T06:06:18.148Z,4.53
2023-10-28T06:07:19.901Z,4.43
2023-10-28T06:08:21.687Z,4.80
2023-10-28T06:09:23.388Z,4.47
2023-10-28T06:10:25.088Z,4.90
2023-10-28T06:11:26.965Z,4.65
2023-10-28T06:12:28.786Z,4.15
2023-10-28T06:13:30.415Z,5.13
2023-10-28T06:14:32.028Z,5.15
2023-10-28T06:15:35.017Z,4.53
2023-10-28T06:16:36.658Z,4.22
2023-10-28T06:17:38.409Z,4.45
2023-10-28T06:18:40.062Z,5.18
2023-10-28T06:19:41.694Z,4.63
2023-10-28T06:20:43.966Z,4.35
2023-10-28T06:21:45.636Z,4.90
2023-10-28T06:22:47.457Z,4.53
2023-10-28T06:23:49.344Z,4.40
2023-10-28T06:24:50.971Z,5.07
2023-10-28T06:25:52.842Z,4.60
2023-10-28T06:26:54.539Z,4.60
2023-10-28T06:27:56.131Z,4.82
2023-10-28T06:28:57.784Z,4.50
2023-10-28T06:29:59.413Z,4.15
2023-10-28T06:31:02.404Z,4.80
2023-10-28T06:32:05.575Z,5.07
2023-10-28T06:33:07.390Z,4.50
2023-10-28T06:34:09.006Z,4.95
2023-10-28T06:35:10.694Z,4.95
2023-10-28T06:36:12.449Z,5.45
2023-10-28T06:37:14.257Z,5.20
2023-10-28T06:38:16.107Z,4.78
2023-10-28T06:39:17.746Z,5.18
2023-10-28T06:40:19.355Z,5.10
2023-10-28T06:41:20.986Z,5.03
2023-10-28T06:42:22.667Z,5.38
2023-10-28T06:43:24.405Z,5.15
2023-10-28T06:44:26.180Z,4.88
2023-10-28T06:45:28.030Z,5.30
2023-10-28T06:46:31.198Z,4.95
2023-10-28T06:47:33.904Z,5.10
2023-10-28T06:48:36.361Z,4.97
2023-10-28T06:49:38.126Z,5.20
2023-10-28T06:50:39.674Z,5.03
2023-10-28T06:51:41.316Z,5.38
2023-10-28T06:52:42.898Z,4.93
2023-10-28T06:53:44.565Z,5.25
2023-10-28T06:54:46.182Z,5.30
2023-10-28T06:55:47.799Z,4.60
2023-10-28T06:56:49.419Z,5.00
2023-10-28T06:57:51.030Z,4.88
2023-10-28T06:58:52.739Z,4.88
2023-10-28T06:59:54.526Z,4.65
2023-10-28T07:00:56.232Z,5.35
2023-10-28T07:01:59.394Z,5.18
2023-10-28T07:03:01.289Z,5.35
2023-10-28T07:04:03.190Z,5.10
2023-10-28T07:05:05.352Z,5.43
2023-10-28T07:06:08.226Z,5.30
2023-10-28T07:07:09.852Z,5.32
2023-10-28T07:08:11.503Z,5.20
2023-10-28T07:09:13.309Z,5.35
2023-10-28T07:10:14.948Z,5.32
2023-10-28T07:11:16.528Z,4.93
2023-10-28T07:12:18.170Z,5.90
2023-10-28T07:13:19.800Z,5.25
2023-10-28T07:14:21.485Z,5.45
2023-10-28T07:15:23.255Z,5.82
2023-10-28T07:16:25.127Z,5.32
2023-10-28T07:17:28.521Z,5.10
2023-10-28T07:18:30.308Z,6.07
2023-10-28T07:19:33.308Z,6.72
2023-10-28T07:20:35.261Z,5.55
2023-10-28T07:21:39.207Z,5.25
2023-10-28T07:22:40.864Z,5.60
2023-10-28T07:23:42.473Z,5.10
2023-10-28T07:24:44.233Z,5.60
2023-10-28T07:25:46.053Z,5.95
2023-10-28T07:26:47.723Z,5.18
2023-10-28T07:27:49.354Z,5.22
2023-10-28T07:28:51.132Z,5.47
2023-10-28T07:29:52.729Z,4.93
2023-10-28T07:30:54.457Z,5.72
2023-10-28T07:31:57.539Z,5.93
2023-10-28T07:33:00.503Z,4.90
2023-10-28T07:34:02.107Z,5.70
2023-10-28T07:35:04.168Z,5.53
2023-10-28T07:36:06.921Z,5.95
2023-10-28T07:37:09.872Z,4.97
2023-10-28T07:38:11.954Z,5.10
2023-10-28T07:39:16.975Z,5.38
2023-10-28T07:40:22.010Z,5.20
2023-10-28T07:41:23.782Z,5.78
2023-10-28T07:42:25.513Z,5.93
2023-10-28T07:43:27.203Z,5.93
2023-10-28T07:44:29.614Z,6.55
2023-10-28T07:45:31.377Z,6.47
2023-10-28T07:46:33.014Z,6.43
2023-10-28T07:47:34.640Z,5.70
2023-10-28T07:48:37.694Z,6.43
2023-10-28T07:49:39.249Z,6.45
2023-10-28T07:50:42.237Z,6.15
2023-10-28T07:51:43.925Z,6.25
2023-10-28T07:52:45.539Z,6.65
2023-10-28T07:53:47.151Z,6.65
2023-10-28T07:54:48.811Z,5.85
2023-10-28T07:55:50.542Z,6.13
2023-10-28T07:56:52.237Z,6.03
2023-10-28T07:57:53.844Z,5.93
2023-10-28T07:58:55.540Z,5.20
2023-10-28T07:59:57.270Z,6.13
2023-10-28T08:01:01.477Z,5.75
2023-10-28T08:02:03.470Z,5.47
2023-10-28T08:03:05.292Z,6.53
2023-10-28T08:04:08.397Z,5.53
2023-10-28T08:05:10.091Z,5.13
2023-10-28T08:06:20.303Z,5.68
2023-10-28T08:07:30.175Z,5.93
2023-10-28T08:08:31.791Z,5.47
2023-10-28T08:09:34.794Z,6.10
2023-10-28T08:10:39.327Z,5.50
2023-10-28T08:11:40.897Z,6.07
2023-10-28T08:12:42.549Z,6.05
2023-10-28T08:13:44.483Z,6.43
2023-10-28T08:14:47.169Z,6.25
2023-10-28T08:15:48.811Z,6.63
2023-10-28T08:16:50.447Z,5.75
2023-10-28T08:17:52.274Z,6.82
2023-10-28T08:18:54.112Z,5.78
2023-10-28T08:19:57.075Z,5.43
2023-10-28T08:20:58.664Z,6.13
2023-10-28T08:22:00.243Z,5.43
2023-10-28T08:23:01.837Z,6.10
2023-10-28T08:24:03.866Z,6.05
2023-10-28T08:25:09.210Z,5.18
2023-10-28T08:26:11.511Z,6.40
2023-10-28T08:27:13.471Z,5.78
2023-10-28T08:28:16.710Z,5.90
2023-10-28T08:29:18.640Z,4.72
2023-10-28T08:30:23.154Z,5.75
2023-10-28T08:31:25.289Z,5.20
2023-10-28T08:32:26.931Z,5.50
2023-10-28T08:33:28.655Z,5.85
2023-10-28T08:34:30.298Z,5.35
2023-10-28T08:35:44.387Z,6.05
2023-10-28T08:36:46.006Z,6.07
2023-10-28T08:37:48.204Z,5.97
2023-10-28T08:38:49.760Z,5.32
2023-10-28T08:39:51.408Z,5.40
2023-10-28T08:40:55.315Z,6.13
2023-10-28T08:41:59.131Z,5.47
2023-10-28T08:44:03.086Z,6.35
2023-10-28T08:45:09.415Z,5.45
2023-10-28T08:46:13.497Z,5.50
2023-10-28T08:47:16.782Z,5.18
2023-10-28T08:48:19.026Z,5.30
2023-10-28T08:49:24.735Z,5.63
2023-10-28T08:50:33.489Z,5.50
2023-10-28T08:51:39.780Z,5.47
2023-10-28T08:52:42.343Z,5.75
2023-10-28T08:53:46.204Z,5.47
2023-10-28T08:55:54.259Z,4.75
2023-10-28T08:56:56.898Z,5.45
2023-10-28T08:58:02.055Z,5.53
2023-10-28T08:59:03.730Z,5.38
2023-10-28T09:00:08.174Z,5.25
2023-10-28T09:01:10.085Z,5.15
2023-10-28T09:02:13.150Z,4.88
2023-10-28T09:03:15.389Z,5.05
2023-10-28T09:04:17.164Z,5.32
2023-10-28T09:05:18.752Z,5.63
2023-10-28T09:06:20.447Z,5.40
2023-10-28T09:07:23.607Z,5.20
2023-10-28T09:08:25.335Z,5.93
2023-10-28T09:09:28.652Z,5.47
2023-10-28T09:10:30.252Z,5.30
2023-10-28T09:11:31.884Z,5.40
2023-10-28T09:12:34.372Z,5.80
2023-10-28T09:13:36.119Z,6.07
2023-10-28T09:14:37.683Z,5.13
2023-10-28T09:15:39.390Z,5.07
2023-10-28T09:16:41.437Z,5.70
2023-10-28T09:17:44.597Z,5.32
2023-10-28T09:18:46.279Z,5.65
2023-10-28T09:19:48.110Z,4.97
2023-10-28T09:20:52.763Z,5.15
2023-10-28T09:21:56.269Z,5.93
2023-10-28T09:22:59.270Z,5.68
2023-10-28T09:24:01.658Z,6.43
2023-10-28T09:25:04.272Z,6.10
2023-10-28T09:26:06.610Z,5.82
2023-10-28T09:27:11.176Z,5.50
2023-10-28T09:28:16.255Z,4.80
2023-10-28T09:29:28.128Z,6.25
2023-10-28T09:30:29.951Z,6.82
2023-10-28T09:31:31.568Z,6.20
2023-10-28T09:32:33.835Z,5.47
2023-10-28T09:33:35.750Z,6.40
2023-10-28T09:34:38.157Z,5.30
2023-10-28T09:35:40.959Z,6.57
2023-10-28T09:36:42.599Z,5.63
2023-10-28T09:37:44.212Z,6.78
2023-10-28T09:38:48.044Z,6.25
2023-10-28T09:40:52.700Z,5.72
2023-10-28T09:41:54.947Z,6.07
2023-10-28T09:42:56.751Z,7.13
2023-10-28T09:44:01.501Z,5.93
2023-10-28T09:45:05.088Z,5.63
2023-10-28T09:46:08.197Z,6.40
2023-10-28T09:47:18.707Z,6.22
2023-10-28T09:48:21.524Z,6.70
2023-10-28T09:49:26.403Z,6.70
2023-10-28T09:50:32.608Z,6.53
2023-10-28T09:51:38.323Z,6.18
2023-10-28T09:52:43.240Z,6.43
2023-10-28T09:53:51.321Z,6.38
2023-10-28T09:55:05.109Z,5.93
2023-10-28T09:56:07.364Z,6.90
2023-10-28T09:57:09.547Z,5.93
2023-10-28T09:58:17.606Z,5.75
2023-10-28T09:59:22.190Z,6.15
2023-10-28T10:00:27.833Z,5.65
2023-10-28T10:01:38.652Z,5.70
2023-10-28T10:02:56.677Z,5.47
2023-10-28T10:04:09.448Z,5.72
2023-10-28T10:05:18.017Z,6.00
2023-10-28T10:06:20.354Z,5.55
2023-10-28T10:07:22.486Z,5.47
2023-10-28T10:08:25.039Z,5.07
2023-10-28T10:09:28.104Z,5.57
2023-10-28T10:10:30.140Z,5.90
2023-10-28T10:11:31.777Z,5.22
2023-10-28T10:12:35.596Z,5.30
2023-10-28T10:13:43.311Z,5.88
2023-10-28T10:14:46.568Z,5.32
2023-10-28T10:15:55.746Z,5.55
2023-10-28T10:17:04.735Z,5.72
2023-10-28T10:18:18.205Z,5.68
2023-10-28T10:19:24.766Z,5.38
2023-10-28T10:20:26.993Z,5.53
2023-10-28T10:21:35.150Z,5.60
2023-10-28T10:22:39.424Z,5.88
2023-10-28T10:23:44.625Z,6.47
2023-10-28T10:24:51.480Z,7.45
2023-10-28T10:25:55.727Z,6.25
2023-10-28T10:27:00.107Z,7.68
2023-10-28T10:28:12.657Z,7.18
2023-10-28T10:29:14.270Z,7.38
2023-10-28T10:30:15.882Z,6.80
2023-10-28T10:31:18.937Z,7.28
2023-10-28T10:32:20.640Z,6.53
2023-10-28T10:33:25.493Z,6.45
2023-10-28T10:34:34.380Z,6.28
2023-10-28T10:35:37.472Z,6.63
2023-10-28T10:36:40.214Z,5.88
2023-10-28T10:37:44.088Z,7.05
2023-10-28T10:39:48.276Z,6.25
2023-10-28T10:40:53.828Z,6.05
2023-10-28T10:42:00.440Z,6.72
2023-10-28T10:43:09.789Z,6.03
2023-10-28T10:44:21.527Z,5.97
2023-10-28T10:45:23.526Z,5.38
2023-10-28T10:46:25.244Z,5.95
2023-10-28T10:47:27.448Z,4.35
2023-10-28T10:48:29.170Z,5.15
2023-10-28T10:49:31.978Z,6.13
2023-10-28T10:50:33.660Z,5.57
2023-10-28T10:51:35.752Z,5.35
2023-10-28T10:52:40.540Z,4.82
2023-10-28T10:53:42.870Z,5.25
2023-10-28T10:54:44.439Z,5.03
2023-10-28T10:55:48.270Z,4.38
2023-10-28T10:57:52.825Z,4.03
2023-10-28T10:58:54.546Z,4.75
2023-10-28T10:59:56.263Z,4.65
2023-10-28T11:00:58.599Z,4.28
2023-10-28T11:03:06.685Z,4.45
2023-10-28T11:04:08.907Z,4.25
2023-10-28T11:05:10.561Z,3.97
2023-10-28T11:06:12.353Z,4.75
2023-10-28T11:07:13.963Z,4.35
2023-10-28T11:08:15.719Z,4.57
2023-10-28T11:09:17.962Z,4.07
2023-10-28T11:10:21.159Z,3.85
2023-10-28T11:11:22.824Z,3.90
2023-10-28T11:12:25.783Z,4.15
2023-10-28T11:13:27.398Z,4.25
2023-10-28T11:14:29.283Z,3.88
2023-10-28T11:15:32.926Z,4.53
2023-10-28T11:16:35.212Z,4.10
2023-10-28T11:17:36.983Z,3.83
2023-10-28T11:18:38.663Z,3.83
2023-10-28T11:19:48.166Z,3.50
2023-10-28T11:20:49.915Z,3.90
2023-10-28T11:21:51.661Z,3.42
2023-10-28T11:22:53.342Z,3.47
2023-10-28T11:23:55.583Z,3.60
2023-10-28T11:24:57.594Z,3.30
2023-10-28T11:26:03.812Z,3.80
2023-10-28T11:27:05.400Z,3.67
2023-10-28T11:28:09.407Z,3.78
2023-10-28T11:29:11.052Z,3.65
2023-10-28T11:30:13.238Z,3.25
2023-10-28T11:31:14.912Z,3.72
2023-10-28T11:32:16.545Z,3.10
2023-10-28T11:33:18.274Z,2.30
2023-10-28T11:34:20.078Z,3.33
2023-10-28T11:35:21.688Z,3.40
2023-10-28T11:36:23.616Z,2.97
2023-10-28T11:37:25.353Z,2.90
2023-10-28T11:38:27.030Z,3.20
2023-10-28T11:39:28.666Z,2.95
2023-10-28T11:40:30.331Z,3.05
2023-10-28T11:41:32.111Z,3.30
2023-10-28T11:42:34.944Z,3.20
2023-10-28T11:43:38.435Z,2.90
2023-10-28T11:44:41.783Z,3.05
2023-10-28T11:45:43.738Z,2.53
2023-10-28T11:46:45.721Z,2.90
2023-10-28T11:47:47.445Z,2.92
2023-10-28T11:48:49.032Z,2.90
2023-10-28T11:49:50.611Z,2.85
2023-10-28T11:50:52.318Z,2.70
2023-10-28T11:51:53.888Z,3.13
2023-10-28T11:52:55.584Z,3.08
2023-10-28T11:53:57.235Z,3.03
2023-10-28T11:54:58.769Z,2.55
2023-10-28T11:56:00.388Z,3.08
2023-10-28T11:57:02.133Z,3.38
2023-10-28T11:58:03.753Z,2.90
2023-10-28T11:59:06.747Z,2.33
2023-10-28T12:00:09.440Z,2.42
2023-10-28T12:01:11.387Z,3.20
2023-10-28T12:02:13.551Z,2.72
2023-10-28T12:03:15.220Z,2.83
2023-10-28T12:04:17.140Z,3.00
2023-10-28T12:05:18.823Z,2.75
2023-10-28T12:06:29.580Z,2.45
2023-10-28T12:07:34.546Z,2.40
2023-10-28T12:08:36.132Z,2.53
2023-10-28T12:09:37.716Z,2.83
2023-10-28T12:10:39.628Z,2.35
2023-10-28T12:11:41.967Z,2.88
2023-10-28T12:12:43.545Z,3.17
2023-10-28T12:13:45.158Z,2.75
2023-10-28T12:14:48.858Z,3.13
2023-10-28T12:15:50.448Z,3.53
2023-10-28T12:16:51.996Z,4.10
2023-10-28T12:17:53.612Z,4.28
2023-10-28T12:18:55.215Z,3.33
2023-10-28T12:19:56.865Z,3.70
2023-10-28T12:20:58.501Z,3.10
2023-10-28T12:22:00.111Z,3.55
2023-10-28T12:23:02.039Z,3.78
2023-10-28T12:24:04.060Z,3.28
2023-10-28T12:25:06.671Z,4.10
2023-10-28T12:26:08.486Z,4.18
2023-10-28T12:27:10.323Z,3.63
2023-10-28T12:28:11.859Z,4.15
2023-10-28T12:29:13.749Z,3.75
2023-10-28T12:30:17.109Z,3.50
2023-10-28T12:31:18.729Z,3.67
2023-10-28T12:32:20.394Z,3.10
2023-10-28T12:33:22.052Z,3.30
2023-10-28T12:34:23.678Z,2.85
2023-10-28T12:35:25.409Z,4.20
2023-10-28T12:36:27.038Z,4.82
2023-10-28T12:37:28.717Z,5.07
2023-10-28T12:38:30.344Z,4.80
2023-10-28T12:39:31.972Z,5.13
2023-10-28T12:40:33.662Z,3.55
2023-10-28T12:41:35.228Z,4.57
2023-10-28T12:42:36.970Z,3.97
2023-10-28T12:43:38.779Z,3.42
2023-10-28T12:44:40.365Z,3.03
2023-10-28T12:45:43.259Z,3.45
2023-10-28T12:46:44.837Z,2.97
2023-10-28T12:47:46.432Z,2.97
2023-10-28T12:48:48.078Z,3.17
2023-10-28T12:49:49.640Z,3.05
2023-10-28T12:50:51.238Z,3.95
2023-10-28T12:51:52.916Z,3.17
2023-10-28T12:52:54.772Z,2.80
2023-10-28T12:53:56.409Z,2.63
2023-10-28T12:55:00.871Z,3.42
2023-10-28T12:56:02.622Z,3.50
2023-10-28T12:57:04.701Z,3.08
2023-10-28T12:58:06.253Z,3.15
2023-10-28T12:59:07.922Z,2.95
2023-10-28T13:00:10.609Z,3.03
2023-10-28T13:01:13.621Z,2.42
2023-10-28T13:02:15.298Z,2.45
2023-10-28T13:03:16.972Z,2.70
2023-10-28T13:04:19.950Z,1.95
2023-10-28T13:05:23.676Z,1.98
2023-10-28T13:06:25.999Z,2.03
2023-10-28T13:07:27.625Z,2.00
2023-10-28T13:08:29.299Z,1.88
2023-10-28T13:09:31.021Z,2.20
2023-10-28T13:10:32.588Z,2.13
2023-10-28T13:11:34.318Z,2.33
2023-10-28T13:12:36.030Z,3.47
2023-10-28T13:13:38.317Z,3.58
2023-10-28T13:14:39.950Z,3.33
2023-10-28T13:15:43.135Z,3.78
2023-10-28T13:16:46.105Z,2.90
2023-10-28T13:17:47.836Z,2.25
2023-10-28T13:18:49.889Z,2.67
2023-10-28T13:19:51.527Z,1.90
2023-10-28T13:20:53.129Z,2.30
2023-10-28T13:21:54.808Z,2.42
2023-10-28T13:22:58.638Z,2.28
2023-10-28T13:24:00.233Z,2.25
2023-10-28T13:25:01.840Z,1.70
2023-10-28T13:26:03.649Z,1.42
2023-10-28T13:27:05.629Z,1.83
2023-10-28T13:28:07.924Z,1.23
2023-10-28T13:29:09.745Z,1.40
2023-10-28T13:30:12.802Z,2.03
2023-10-28T13:31:14.590Z,1.45
2023-10-28T13:32:17.667Z,1.27
2023-10-28T13:33:19.558Z,1.50
2023-10-28T13:34:21.204Z,1.20
2023-10-28T13:35:23.026Z,1.58
2023-10-28T13:36:24.939Z,1.30
2023-10-28T13:37:26.659Z,1.20
2023-10-28T13:38:28.352Z,1.33
2023-10-28T13:39:30.029Z,1.35
2023-10-28T13:40:31.792Z,1.30
2023-10-28T13:41:33.712Z,1.75
2023-10-28T13:42:35.402Z,1.30
2023-10-28T13:43:37.022Z,1.52
2023-10-28T13:44:38.719Z,1.10
2023-10-28T13:45:40.327Z,1.33
2023-10-28T13:46:42.221Z,1.25
2023-10-28T13:47:46.604Z,1.10
2023-10-28T13:48:48.274Z,1.00
2023-10-28T13:49:50.327Z,1.20
2023-10-28T13:50:52.269Z,1.33
2023-10-28T13:51:55.909Z,1.67